sensor_id;sensor_type;location;lat;lon;timestamp;pressure;altitude;pressure_sealevel;temperature;humidity
43621;BME280;29213;50.770;7.298;2023-02-02T00:00:13;101319.78;;;5.27;61.65
43621;BME280;29213;50.770;7.298;2023-02-02T00:02:38;101358.41;;;5.41;61.46
43621;BME280;29213;50.770;7.298;2023-02-02T00:05:04;101329.28;;;5.30;61.65
43621;BME280;29213;50.770;7.298;2023-02-02T00:07:29;101307.56;;;5.13;61.41
43621;BME280;29213;50.770;7.298;2023-02-02T00:09:54;101281.50;;;4.95;62.16
43621;BME280;29213;50.770;7.298;2023-02-02T00:12:20;101337.38;;;5.40;61.62
43621;BME280;29213;50.770;7.298;2023-02-02T00:14:45;101317.66;;;5.32;61.73
43621;BME280;29213;50.770;7.298;2023-02-02T00:17:11;101315.66;;;5.23;61.47
43621;BME280;29213;50.770;7.298;2023-02-02T00:19:36;101321.28;;;5.18;61.77
43621;BME280;29213;50.770;7.298;2023-02-02T00:22:01;101325.38;;;5.22;61.91
43621;BME280;29213;50.770;7.298;2023-02-02T00:24:27;101375.56;;;5.60;61.73
43621;BME280;29213;50.770;7.298;2023-02-02T00:26:55;101378.66;;;5.54;61.73
43621;BME280;29213;50.770;7.298;2023-02-02T00:29:23;101236.47;;;4.73;61.70
43621;BME280;29213;50.770;7.298;2023-02-02T00:31:49;101353.13;;;5.41;61.76
43621;BME280;29213;50.770;7.298;2023-02-02T00:34:15;101378.00;;;5.63;61.60
43621;BME280;29213;50.770;7.298;2023-02-02T00:36:42;101372.41;;;5.55;61.97
43621;BME280;29213;50.770;7.298;2023-02-02T00:39:09;101321.38;;;5.17;62.06
43621;BME280;29213;50.770;7.298;2023-02-02T00:41:35;101376.72;;;5.56;61.88
43621;BME280;29213;50.770;7.298;2023-02-02T00:44:00;101308.19;;;5.17;61.65
43621;BME280;29213;50.770;7.298;2023-02-02T00:46:44;101384.75;;;5.54;62.09
43621;BME280;29213;50.770;7.298;2023-02-02T00:49:10;101362.22;;;5.37;62.17
43621;BME280;29213;50.770;7.298;2023-02-02T00:51:36;101325.00;;;5.16;62.13
43621;BME280;29213;50.770;7.298;2023-02-02T00:54:02;101373.47;;;5.52;62.04
43621;BME280;29213;50.770;7.298;2023-02-02T00:56:28;101376.94;;;5.28;62.58
43621;BME280;29213;50.770;7.298;2023-02-02T00:58:53;101323.50;;;5.12;62.31
43621;BME280;29213;50.770;7.298;2023-02-02T01:01:20;101338.25;;;5.27;62.13
43621;BME280;29213;50.770;7.298;2023-02-02T01:03:47;101335.69;;;5.39;62.08
43621;BME280;29213;50.770;7.298;2023-02-02T01:06:12;101348.91;;;5.63;61.60
43621;BME280;29213;50.770;7.298;2023-02-02T01:08:38;101372.00;;;5.72;61.34
43621;BME280;29213;50.770;7.298;2023-02-02T01:11:05;101232.31;;;4.94;61.37
43621;BME280;29213;50.770;7.298;2023-02-02T01:13:31;101297.34;;;5.33;61.17
43621;BME280;29213;50.770;7.298;2023-02-02T01:15:58;101305.25;;;5.33;61.65
43621;BME280;29213;50.770;7.298;2023-02-02T01:18:24;101362.97;;;5.63;61.81
43621;BME280;29213;50.770;7.298;2023-02-02T01:21:04;101356.53;;;5.55;62.39
43621;BME280;29213;50.770;7.298;2023-02-02T01:23:31;101352.84;;;5.57;62.41
43621;BME280;29213;50.770;7.298;2023-02-02T01:25:59;101276.50;;;5.17;62.70
43621;BME280;29213;50.770;7.298;2023-02-02T01:28:25;101355.28;;;5.60;62.40
43621;BME280;29213;50.770;7.298;2023-02-02T01:30:51;101308.06;;;5.18;63.18
43621;BME280;29213;50.770;7.298;2023-02-02T01:33:17;101371.28;;;5.46;63.25
43621;BME280;29213;50.770;7.298;2023-02-02T01:35:54;101368.06;;;5.54;63.14
43621;BME280;29213;50.770;7.298;2023-02-02T01:38:20;101275.97;;;5.12;62.46
43621;BME280;29213;50.770;7.298;2023-02-02T01:40:49;101238.06;;;4.75;62.79
43621;BME280;29213;50.770;7.298;2023-02-02T01:43:21;101373.25;;;5.55;62.62
43621;BME280;29213;50.770;7.298;2023-02-02T01:45:47;101363.56;;;5.43;62.70
43621;BME280;29213;50.770;7.298;2023-02-02T01:48:13;101285.00;;;4.96;62.39
43621;BME280;29213;50.770;7.298;2023-02-02T01:50:39;101373.81;;;5.47;62.63
43621;BME280;29213;50.770;7.298;2023-02-02T01:53:06;101349.56;;;5.16;62.91
43621;BME280;29213;50.770;7.298;2023-02-02T01:55:34;101306.63;;;5.01;62.98
43621;BME280;29213;50.770;7.298;2023-02-02T01:58:09;101335.97;;;5.09;63.36
43621;BME280;29213;50.770;7.298;2023-02-02T02:00:37;101329.09;;;5.07;64.11
43621;BME280;29213;50.770;7.298;2023-02-02T02:03:08;101371.41;;;5.31;65.36
43621;BME280;29213;50.770;7.298;2023-02-02T02:05:42;101342.63;;;5.02;65.50
43621;BME280;29213;50.770;7.298;2023-02-02T02:08:16;101318.16;;;5.00;65.28
43621;BME280;29213;50.770;7.298;2023-02-02T02:10:42;101282.00;;;4.76;65.74
43621;BME280;29213;50.770;7.298;2023-02-02T02:13:07;101343.47;;;5.16;65.44
43621;BME280;29213;50.770;7.298;2023-02-02T02:15:40;101393.75;;;5.52;65.77
43621;BME280;29213;50.770;7.298;2023-02-02T02:18:44;101366.03;;;5.20;66.33
43621;BME280;29213;50.770;7.298;2023-02-02T02:21:27;101328.38;;;5.05;66.30
43621;BME280;29213;50.770;7.298;2023-02-02T02:24:44;101349.06;;;5.11;66.98
43621;BME280;29213;50.770;7.298;2023-02-02T02:28:05;101392.66;;;5.30;67.06
43621;BME280;29213;50.770;7.298;2023-02-02T02:30:56;101302.00;;;4.79;67.13
43621;BME280;29213;50.770;7.298;2023-02-02T02:33:30;101358.66;;;5.12;67.41
43621;BME280;29213;50.770;7.298;2023-02-02T02:36:03;101396.31;;;5.40;66.89
43621;BME280;29213;50.770;7.298;2023-02-02T02:41:08;101342.91;;;5.23;66.95
43621;BME280;29213;50.770;7.298;2023-02-02T02:43:46;101390.63;;;5.46;67.01
43621;BME280;29213;50.770;7.298;2023-02-02T02:46:14;101315.53;;;4.87;67.46
43621;BME280;29213;50.770;7.298;2023-02-02T02:48:45;101309.09;;;4.78;67.15
43621;BME280;29213;50.770;7.298;2023-02-02T02:51:48;101393.81;;;5.39;67.09
43621;BME280;29213;50.770;7.298;2023-02-02T02:54:17;101380.59;;;5.39;67.24
43621;BME280;29213;50.770;7.298;2023-02-02T02:59:27;101316.16;;;4.78;67.74
43621;BME280;29213;50.770;7.298;2023-02-02T03:08:14;101297.84;;;4.63;67.48
43621;BME280;29213;50.770;7.298;2023-02-02T03:10:43;101383.91;;;5.16;67.93
43621;BME280;29213;50.770;7.298;2023-02-02T03:13:11;101367.66;;;5.09;67.44
43621;BME280;29213;50.770;7.298;2023-02-02T03:15:44;101368.38;;;5.25;66.90
43621;BME280;29213;50.770;7.298;2023-02-02T03:18:11;101310.22;;;5.00;66.48
43621;BME280;29213;50.770;7.298;2023-02-02T03:20:37;101388.34;;;5.53;66.25
43621;BME280;29213;50.770;7.298;2023-02-02T03:23:03;101394.59;;;5.52;66.20
43621;BME280;29213;50.770;7.298;2023-02-02T03:25:28;101382.69;;;5.46;66.46
43621;BME280;29213;50.770;7.298;2023-02-02T03:27:53;101377.19;;;5.36;66.36
43621;BME280;29213;50.770;7.298;2023-02-02T03:30:20;101305.84;;;4.88;66.36
43621;BME280;29213;50.770;7.298;2023-02-02T03:32:46;101386.50;;;5.42;66.34
43621;BME280;29213;50.770;7.298;2023-02-02T03:35:11;101352.06;;;4.93;66.61
43621;BME280;29213;50.770;7.298;2023-02-02T03:37:37;101318.09;;;4.63;67.48
43621;BME280;29213;50.770;7.298;2023-02-02T03:40:04;101397.97;;;5.17;67.38
43621;BME280;29213;50.770;7.298;2023-02-02T03:42:29;101310.28;;;4.61;67.47
43621;BME280;29213;50.770;7.298;2023-02-02T03:44:55;101313.34;;;4.68;67.80
43621;BME280;29213;50.770;7.298;2023-02-02T03:47:20;101368.22;;;5.02;67.47
43621;BME280;29213;50.770;7.298;2023-02-02T03:49:45;101400.19;;;5.23;67.25
43621;BME280;29213;50.770;7.298;2023-02-02T03:52:11;101316.59;;;4.59;67.65
43621;BME280;29213;50.770;7.298;2023-02-02T03:54:36;101368.94;;;4.91;67.72
43621;BME280;29213;50.770;7.298;2023-02-02T03:57:02;101401.34;;;5.06;68.32
43621;BME280;29213;50.770;7.298;2023-02-02T03:59:27;101360.41;;;4.87;67.45
43621;BME280;29213;50.770;7.298;2023-02-02T04:01:52;101341.81;;;4.89;67.19
43621;BME280;29213;50.770;7.298;2023-02-02T04:04:18;101400.63;;;5.17;67.20
43621;BME280;29213;50.770;7.298;2023-02-02T04:06:43;101355.13;;;4.74;67.98
43621;BME280;29213;50.770;7.298;2023-02-02T04:09:08;101366.00;;;4.82;67.82
43621;BME280;29213;50.770;7.298;2023-02-02T04:11:34;101335.41;;;4.80;67.45
43621;BME280;29213;50.770;7.298;2023-02-02T04:13:59;101400.50;;;5.18;67.50
43621;BME280;29213;50.770;7.298;2023-02-02T04:16:24;101400.19;;;5.10;68.13
43621;BME280;29213;50.770;7.298;2023-02-02T04:18:50;101358.19;;;4.81;68.08
43621;BME280;29213;50.770;7.298;2023-02-02T04:21:15;101332.56;;;4.57;68.55
43621;BME280;29213;50.770;7.298;2023-02-02T04:23:40;101375.19;;;4.77;68.69
43621;BME280;29213;50.770;7.298;2023-02-02T04:26:06;101340.34;;;4.59;68.54
43621;BME280;29213;50.770;7.298;2023-02-02T04:28:31;101388.47;;;4.88;68.18
43621;BME280;29213;50.770;7.298;2023-02-02T04:30:57;101422.56;;;5.17;68.48
43621;BME280;29213;50.770;7.298;2023-02-02T04:33:24;101428.38;;;5.22;68.19
43621;BME280;29213;50.770;7.298;2023-02-02T04:35:50;101423.00;;;5.24;68.25
43621;BME280;29213;50.770;7.298;2023-02-02T04:38:15;101382.78;;;4.94;68.18
43621;BME280;29213;50.770;7.298;2023-02-02T04:40:42;101288.41;;;4.33;68.00
43621;BME280;29213;50.770;7.298;2023-02-02T04:43:09;101378.03;;;5.00;67.71
43621;BME280;29213;50.770;7.298;2023-02-02T04:45:34;101371.88;;;5.12;67.62
43621;BME280;29213;50.770;7.298;2023-02-02T04:48:00;101314.91;;;4.71;67.43
43621;BME280;29213;50.770;7.298;2023-02-02T04:50:25;101382.13;;;5.04;67.36
43621;BME280;29213;50.770;7.298;2023-02-02T04:52:51;101399.56;;;5.06;67.39
43621;BME280;29213;50.770;7.298;2023-02-02T04:55:16;101349.13;;;4.72;67.61
43621;BME280;29213;50.770;7.298;2023-02-02T04:57:42;101431.97;;;5.21;67.91
43621;BME280;29213;50.770;7.298;2023-02-02T05:00:08;101362.00;;;4.77;68.28
43621;BME280;29213;50.770;7.298;2023-02-02T05:02:38;101416.47;;;4.91;68.31
43621;BME280;29213;50.770;7.298;2023-02-02T05:05:06;101440.22;;;5.04;68.61
43621;BME280;29213;50.770;7.298;2023-02-02T05:07:31;101442.53;;;5.08;68.28
43621;BME280;29213;50.770;7.298;2023-02-02T05:09:57;101376.13;;;4.63;68.66
43621;BME280;29213;50.770;7.298;2023-02-02T05:12:22;101352.34;;;4.50;69.20
43621;BME280;29213;50.770;7.298;2023-02-02T05:14:47;101440.00;;;5.07;68.43
43621;BME280;29213;50.770;7.298;2023-02-02T05:17:13;101437.25;;;5.08;68.55
43621;BME280;29213;50.770;7.298;2023-02-02T05:19:38;101450.16;;;5.00;68.83
43621;BME280;29213;50.770;7.298;2023-02-02T05:22:04;101410.38;;;4.90;68.74
43621;BME280;29213;50.770;7.298;2023-02-02T05:24:29;101318.06;;;4.37;68.35
43621;BME280;29213;50.770;7.298;2023-02-02T05:26:55;101380.78;;;4.85;68.05
43621;BME280;29213;50.770;7.298;2023-02-02T05:29:28;101439.91;;;5.21;68.05
43621;BME280;29213;50.770;7.298;2023-02-02T05:31:53;101451.94;;;5.39;67.76
43621;BME280;29213;50.770;7.298;2023-02-02T05:34:19;101451.19;;;5.23;68.24
43621;BME280;29213;50.770;7.298;2023-02-02T05:36:45;101448.34;;;5.27;68.51
43621;BME280;29213;50.770;7.298;2023-02-02T05:39:10;101395.88;;;4.96;68.21
43621;BME280;29213;50.770;7.298;2023-02-02T05:41:36;101369.91;;;4.77;68.40
43621;BME280;29213;50.770;7.298;2023-02-02T05:44:02;101453.00;;;5.10;68.67
43621;BME280;29213;50.770;7.298;2023-02-02T05:46:28;101451.00;;;5.01;69.31
43621;BME280;29213;50.770;7.298;2023-02-02T05:48:53;101378.88;;;4.61;69.10
43621;BME280;29213;50.770;7.298;2023-02-02T05:51:21;101449.41;;;5.11;68.23
43621;BME280;29213;50.770;7.298;2023-02-02T05:53:48;101439.50;;;4.89;69.27
43621;BME280;29213;50.770;7.298;2023-02-02T05:56:14;101384.56;;;4.55;68.65
43621;BME280;29213;50.770;7.298;2023-02-02T05:58:41;101374.03;;;4.68;68.52
43621;BME280;29213;50.770;7.298;2023-02-02T06:01:07;101377.72;;;4.65;68.36
43621;BME280;29213;50.770;7.298;2023-02-02T06:03:33;101436.84;;;4.89;68.64
43621;BME280;29213;50.770;7.298;2023-02-02T06:05:59;101398.41;;;4.72;68.65
43621;BME280;29213;50.770;7.298;2023-02-02T06:08:24;101457.03;;;5.03;68.42
43621;BME280;29213;50.770;7.298;2023-02-02T06:10:49;101393.03;;;4.60;68.75
43621;BME280;29213;50.770;7.298;2023-02-02T06:13:15;101335.06;;;4.46;68.36
43621;BME280;29213;50.770;7.298;2023-02-02T06:15:40;101446.03;;;5.22;67.85
43621;BME280;29213;50.770;7.298;2023-02-02T06:18:08;101453.44;;;5.17;67.65
43621;BME280;29213;50.770;7.298;2023-02-02T06:20:34;101419.44;;;4.86;68.12
43621;BME280;29213;50.770;7.298;2023-02-02T06:22:59;101412.88;;;4.79;68.02
43621;BME280;29213;50.770;7.298;2023-02-02T06:25:25;101303.16;;;4.23;68.03
43621;BME280;29213;50.770;7.298;2023-02-02T06:27:55;101447.63;;;5.12;67.30
43621;BME280;29213;50.770;7.298;2023-02-02T06:30:21;101378.69;;;4.64;66.96
43621;BME280;29213;50.770;7.298;2023-02-02T06:32:46;101448.56;;;4.98;67.42
43621;BME280;29213;50.770;7.298;2023-02-02T06:35:12;101424.91;;;4.83;67.31
43621;BME280;29213;50.770;7.298;2023-02-02T06:37:37;101423.53;;;4.64;67.14
43621;BME280;29213;50.770;7.298;2023-02-02T06:40:05;101472.53;;;5.07;67.36
43621;BME280;29213;50.770;7.298;2023-02-02T06:42:31;101437.38;;;4.81;67.08
43621;BME280;29213;50.770;7.298;2023-02-02T06:44:57;101451.09;;;4.86;66.83
43621;BME280;29213;50.770;7.298;2023-02-02T06:47:22;101438.22;;;4.68;67.14
43621;BME280;29213;50.770;7.298;2023-02-02T06:49:47;101493.66;;;5.07;66.98
43621;BME280;29213;50.770;7.298;2023-02-02T06:52:13;101467.13;;;4.83;67.13
43621;BME280;29213;50.770;7.298;2023-02-02T06:54:38;101497.16;;;5.08;67.31
43621;BME280;29213;50.770;7.298;2023-02-02T06:57:03;101439.59;;;4.74;66.80
43621;BME280;29213;50.770;7.298;2023-02-02T06:59:29;101460.19;;;4.95;66.73
43621;BME280;29213;50.770;7.298;2023-02-02T07:01:54;101428.91;;;4.63;66.59
43621;BME280;29213;50.770;7.298;2023-02-02T07:04:20;101489.97;;;4.97;67.01
43621;BME280;29213;50.770;7.298;2023-02-02T07:06:46;101490.41;;;5.04;66.52
43621;BME280;29213;50.770;7.298;2023-02-02T07:09:11;101432.09;;;4.81;66.58
43621;BME280;29213;50.770;7.298;2023-02-02T07:11:36;101395.97;;;4.55;66.53
43621;BME280;29213;50.770;7.298;2023-02-02T07:14:03;101406.44;;;4.57;66.54
43621;BME280;29213;50.770;7.298;2023-02-02T07:16:28;101428.41;;;4.71;66.51
43621;BME280;29213;50.770;7.298;2023-02-02T07:18:54;101457.13;;;5.01;66.28
43621;BME280;29213;50.770;7.298;2023-02-02T07:21:22;101432.81;;;4.83;65.97
43621;BME280;29213;50.770;7.298;2023-02-02T07:23:48;101498.72;;;5.23;65.78
43621;BME280;29213;50.770;7.298;2023-02-02T07:26:15;101458.72;;;5.04;65.72
43621;BME280;29213;50.770;7.298;2023-02-02T07:28:41;101504.09;;;5.35;65.67
43621;BME280;29213;50.770;7.298;2023-02-02T07:31:18;101507.06;;;5.43;65.30
43621;BME280;29213;50.770;7.298;2023-02-02T07:33:46;101371.19;;;4.58;65.01
43621;BME280;29213;50.770;7.298;2023-02-02T07:36:13;101495.56;;;5.31;64.96
43621;BME280;29213;50.770;7.298;2023-02-02T07:38:40;101340.63;;;4.28;64.93
43621;BME280;29213;50.770;7.298;2023-02-02T07:41:06;101452.78;;;4.87;65.26
43621;BME280;29213;50.770;7.298;2023-02-02T07:43:31;101484.16;;;5.05;64.93
43621;BME280;29213;50.770;7.298;2023-02-02T07:46:01;101513.41;;;5.28;65.13
43621;BME280;29213;50.770;7.298;2023-02-02T07:48:30;101430.38;;;4.93;65.06
43621;BME280;29213;50.770;7.298;2023-02-02T07:50:59;101492.81;;;5.20;65.82
43621;BME280;29213;50.770;7.298;2023-02-02T07:53:26;101427.25;;;4.75;65.54
43621;BME280;29213;50.770;7.298;2023-02-02T07:55:51;101388.50;;;4.62;65.48
43621;BME280;29213;50.770;7.298;2023-02-02T07:58:17;101514.16;;;5.43;65.72
43621;BME280;29213;50.770;7.298;2023-02-02T08:00:42;101514.28;;;5.41;65.90
43621;BME280;29213;50.770;7.298;2023-02-02T08:03:11;101493.97;;;5.29;65.67
43621;BME280;29213;50.770;7.298;2023-02-02T08:05:37;101518.69;;;5.28;65.89
43621;BME280;29213;50.770;7.298;2023-02-02T08:08:03;101517.53;;;5.32;66.09
43621;BME280;29213;50.770;7.298;2023-02-02T08:10:29;101431.56;;;4.89;65.84
43621;BME280;29213;50.770;7.298;2023-02-02T08:12:54;101507.69;;;5.21;65.94
43621;BME280;29213;50.770;7.298;2023-02-02T08:15:20;101464.09;;;5.02;66.10
43621;BME280;29213;50.770;7.298;2023-02-02T08:17:45;101452.78;;;4.87;65.91
43621;BME280;29213;50.770;7.298;2023-02-02T08:20:14;101489.66;;;5.15;66.10
43621;BME280;29213;50.770;7.298;2023-02-02T08:22:40;101450.88;;;5.02;66.22
43621;BME280;29213;50.770;7.298;2023-02-02T08:25:05;101500.75;;;5.33;66.01
43621;BME280;29213;50.770;7.298;2023-02-02T08:27:31;101522.41;;;5.38;66.78
43621;BME280;29213;50.770;7.298;2023-02-02T08:29:56;101485.75;;;5.07;66.58
43621;BME280;29213;50.770;7.298;2023-02-02T08:32:22;101536.91;;;5.32;67.04
43621;BME280;29213;50.770;7.298;2023-02-02T08:34:48;101479.19;;;5.00;67.12
43621;BME280;29213;50.770;7.298;2023-02-02T08:37:13;101469.25;;;4.78;66.78
43621;BME280;29213;50.770;7.298;2023-02-02T08:39:38;101478.75;;;4.80;67.56
43621;BME280;29213;50.770;7.298;2023-02-02T08:42:04;101528.63;;;5.11;67.93
43621;BME280;29213;50.770;7.298;2023-02-02T08:44:29;101497.78;;;4.99;67.40
43621;BME280;29213;50.770;7.298;2023-02-02T08:46:54;101377.03;;;4.36;67.11
43621;BME280;29213;50.770;7.298;2023-02-02T08:49:20;101552.72;;;5.45;67.09
43621;BME280;29213;50.770;7.298;2023-02-02T08:51:46;101543.72;;;5.48;66.70
43621;BME280;29213;50.770;7.298;2023-02-02T08:54:11;101434.41;;;4.86;66.81
43621;BME280;29213;50.770;7.298;2023-02-02T08:56:37;101461.56;;;5.01;66.79
43621;BME280;29213;50.770;7.298;2023-02-02T08:59:03;101562.66;;;5.68;66.38
43621;BME280;29213;50.770;7.298;2023-02-02T09:01:31;101549.44;;;5.68;66.11
43621;BME280;29213;50.770;7.298;2023-02-02T09:03:58;101506.34;;;5.28;66.66
43621;BME280;29213;50.770;7.298;2023-02-02T09:06:33;101564.44;;;5.54;66.57
43621;BME280;29213;50.770;7.298;2023-02-02T09:08:59;101556.94;;;5.48;67.16
43621;BME280;29213;50.770;7.298;2023-02-02T09:11:25;101567.31;;;5.38;67.16
43621;BME280;29213;50.770;7.298;2023-02-02T09:13:56;101565.41;;;5.40;67.22
43621;BME280;29213;50.770;7.298;2023-02-02T09:16:23;101484.47;;;4.87;67.76
43621;BME280;29213;50.770;7.298;2023-02-02T09:18:49;101504.31;;;4.93;67.31
43621;BME280;29213;50.770;7.298;2023-02-02T09:21:16;101576.19;;;5.37;67.62
43621;BME280;29213;50.770;7.298;2023-02-02T09:23:42;101557.16;;;5.32;67.45
43621;BME280;29213;50.770;7.298;2023-02-02T09:28:46;101565.94;;;5.19;68.22
43621;BME280;29213;50.770;7.298;2023-02-02T09:31:12;101571.72;;;5.12;67.73
43621;BME280;29213;50.770;7.298;2023-02-02T09:33:39;101522.69;;;4.94;67.75
43621;BME280;29213;50.770;7.298;2023-02-02T09:36:05;101606.09;;;5.25;68.48
43621;BME280;29213;50.770;7.298;2023-02-02T09:38:31;101610.63;;;5.35;68.43
43621;BME280;29213;50.770;7.298;2023-02-02T09:40:58;101582.31;;;5.25;67.87
43621;BME280;29213;50.770;7.298;2023-02-02T09:43:50;101612.44;;;5.48;67.90
43621;BME280;29213;50.770;7.298;2023-02-02T09:46:32;101610.72;;;5.34;67.79
43621;BME280;29213;50.770;7.298;2023-02-02T09:49:35;101612.78;;;5.56;67.40
43621;BME280;29213;50.770;7.298;2023-02-02T09:52:10;101590.44;;;5.21;67.73
43621;BME280;29213;50.770;7.298;2023-02-02T09:54:43;101616.47;;;5.41;68.03
43621;BME280;29213;50.770;7.298;2023-02-02T09:57:27;101607.38;;;5.45;67.56
43621;BME280;29213;50.770;7.298;2023-02-02T09:59:55;101555.66;;;5.15;67.00
43621;BME280;29213;50.770;7.298;2023-02-02T10:02:32;101570.69;;;5.14;67.18
43621;BME280;29213;50.770;7.298;2023-02-02T10:05:07;101585.47;;;5.17;67.71
43621;BME280;29213;50.770;7.298;2023-02-02T10:07:39;101628.06;;;5.38;68.01
43621;BME280;29213;50.770;7.298;2023-02-02T10:10:14;101631.78;;;5.35;67.53
43621;BME280;29213;50.770;7.298;2023-02-02T10:12:57;101604.72;;;5.32;67.00
43621;BME280;29213;50.770;7.298;2023-02-02T10:15:41;101577.16;;;4.82;67.00
43621;BME280;29213;50.770;7.298;2023-02-02T10:18:20;101648.56;;;5.34;68.03
43621;BME280;29213;50.770;7.298;2023-02-02T10:20:53;101662.88;;;5.45;68.16
43621;BME280;29213;50.770;7.298;2023-02-02T10:23:46;101667.38;;;5.43;67.83
43621;BME280;29213;50.770;7.298;2023-02-02T10:26:20;101671.44;;;5.48;68.09
43621;BME280;29213;50.770;7.298;2023-02-02T10:34:13;101679.25;;;5.50;68.19
43621;BME280;29213;50.770;7.298;2023-02-02T10:36:49;101677.13;;;5.42;68.64
43621;BME280;29213;50.770;7.298;2023-02-02T10:39:43;101620.09;;;5.12;68.34
43621;BME280;29213;50.770;7.298;2023-02-02T10:44:48;101599.31;;;5.20;68.50
43621;BME280;29213;50.770;7.298;2023-02-02T10:47:23;101632.94;;;5.44;68.00
43621;BME280;29213;50.770;7.298;2023-02-02T10:49:54;101656.22;;;5.65;68.19
43621;BME280;29213;50.770;7.298;2023-02-02T10:52:33;101682.41;;;5.42;68.15
43621;BME280;29213;50.770;7.298;2023-02-02T10:55:32;101687.25;;;5.35;68.33
43621;BME280;29213;50.770;7.298;2023-02-02T10:58:19;101689.47;;;5.42;67.87
43621;BME280;29213;50.770;7.298;2023-02-02T11:00:49;101545.50;;;4.55;67.69
43621;BME280;29213;50.770;7.298;2023-02-02T11:03:18;101656.69;;;5.18;67.89
43621;BME280;29213;50.770;7.298;2023-02-02T11:05:45;101653.50;;;5.13;67.92
43621;BME280;29213;50.770;7.298;2023-02-02T11:08:43;101680.81;;;5.40;67.81
43621;BME280;29213;50.770;7.298;2023-02-02T11:11:16;101681.25;;;5.46;67.63
43621;BME280;29213;50.770;7.298;2023-02-02T11:13:48;101619.81;;;5.17;67.51
43621;BME280;29213;50.770;7.298;2023-02-02T11:18:42;101628.38;;;5.20;66.75
43621;BME280;29213;50.770;7.298;2023-02-02T11:23:58;101615.88;;;5.09;66.86
43621;BME280;29213;50.770;7.298;2023-02-02T11:26:26;101690.56;;;5.65;66.76
43621;BME280;29213;50.770;7.298;2023-02-02T11:29:03;101639.78;;;5.34;66.66
43621;BME280;29213;50.770;7.298;2023-02-02T11:31:34;101645.06;;;5.34;66.51
43621;BME280;29213;50.770;7.298;2023-02-02T11:37:12;101690.34;;;5.68;66.50
43621;BME280;29213;50.770;7.298;2023-02-02T11:39:42;101621.63;;;5.29;66.12
43621;BME280;29213;50.770;7.298;2023-02-02T11:42:16;101689.53;;;5.68;66.27
43621;BME280;29213;50.770;7.298;2023-02-02T11:44:57;101691.56;;;5.77;65.88
43621;BME280;29213;50.770;7.298;2023-02-02T11:47:26;101693.94;;;5.67;65.82
43621;BME280;29213;50.770;7.298;2023-02-02T11:49:53;101630.41;;;5.30;65.52
43621;BME280;29213;50.770;7.298;2023-02-02T11:52:24;101692.81;;;5.71;65.61
43621;BME280;29213;50.770;7.298;2023-02-02T11:54:56;101665.91;;;5.52;65.56
43621;BME280;29213;50.770;7.298;2023-02-02T11:57:24;101688.59;;;5.82;65.70
43621;BME280;29213;50.770;7.298;2023-02-02T12:00:04;101687.72;;;5.81;65.19
43621;BME280;29213;50.770;7.298;2023-02-02T12:02:31;101621.41;;;5.45;64.73
43621;BME280;29213;50.770;7.298;2023-02-02T12:07:46;101690.91;;;5.86;64.89
43621;BME280;29213;50.770;7.298;2023-02-02T12:10:21;101690.38;;;5.94;64.67
43621;BME280;29213;50.770;7.298;2023-02-02T12:21:05;101568.28;;;5.37;63.54
43621;BME280;29213;50.770;7.298;2023-02-02T12:31:39;101584.13;;;5.50;63.34
43621;BME280;29213;50.770;7.298;2023-02-02T12:39:42;101672.06;;;6.17;63.20
43621;BME280;29213;50.770;7.298;2023-02-02T12:45:35;101672.19;;;6.02;63.82
43621;BME280;29213;50.770;7.298;2023-02-02T12:49:11;101635.47;;;5.98;63.70
43621;BME280;29213;50.770;7.298;2023-02-02T12:51:46;101674.16;;;6.25;63.48
43621;BME280;29213;50.770;7.298;2023-02-02T13:03:04;101664.09;;;6.43;62.86
43621;BME280;29213;50.770;7.298;2023-02-02T13:08:48;101663.47;;;6.39;62.70
43621;BME280;29213;50.770;7.298;2023-02-02T13:16:32;101582.06;;;5.80;62.08
43621;BME280;29213;50.770;7.298;2023-02-02T13:19:03;101681.84;;;6.41;62.29
43621;BME280;29213;50.770;7.298;2023-02-02T13:21:30;101649.22;;;6.16;61.80
43621;BME280;29213;50.770;7.298;2023-02-02T13:23:58;101648.25;;;6.17;62.07
43621;BME280;29213;50.770;7.298;2023-02-02T13:26:33;101684.50;;;6.41;61.31
43621;BME280;29213;50.770;7.298;2023-02-02T13:31:44;101688.75;;;6.43;61.49
43621;BME280;29213;50.770;7.298;2023-02-02T13:34:43;101687.03;;;6.42;61.46
43621;BME280;29213;50.770;7.298;2023-02-02T13:37:26;101687.13;;;6.41;61.69
43621;BME280;29213;50.770;7.298;2023-02-02T13:45:34;101606.41;;;6.48;60.39
43621;BME280;29213;50.770;7.298;2023-02-02T13:48:12;101689.13;;;7.01;60.25
43621;BME280;29213;50.770;7.298;2023-02-02T13:50:51;101637.31;;;6.72;60.17
43621;BME280;29213;50.770;7.298;2023-02-02T13:56:12;101690.84;;;6.89;60.41
43621;BME280;29213;50.770;7.298;2023-02-02T14:01:30;101623.88;;;6.51;60.08
43621;BME280;29213;50.770;7.298;2023-02-02T14:03:56;101597.16;;;6.41;59.52
43621;BME280;29213;50.770;7.298;2023-02-02T14:06:26;101634.44;;;6.51;60.01
43621;BME280;29213;50.770;7.298;2023-02-02T14:08:54;101644.47;;;6.59;59.79
43621;BME280;29213;50.770;7.298;2023-02-02T14:14:07;101678.41;;;6.78;59.99
43621;BME280;29213;50.770;7.298;2023-02-02T14:16:53;101593.94;;;6.24;60.17
43621;BME280;29213;50.770;7.298;2023-02-02T14:27:38;101683.41;;;6.69;60.15
43621;BME280;29213;50.770;7.298;2023-02-02T14:29:57;101704.66;;;6.81;59.80
43621;BME280;29213;50.770;7.298;2023-02-02T14:34:50;101654.22;;;6.58;59.49
43621;BME280;29213;50.770;7.298;2023-02-02T14:42:36;101698.50;;;6.80;59.95
43621;BME280;29213;50.770;7.298;2023-02-02T14:45:29;101700.72;;;6.87;59.88
43621;BME280;29213;50.770;7.298;2023-02-02T14:48:22;101699.25;;;6.82;60.45
43621;BME280;29213;50.770;7.298;2023-02-02T14:50:51;101699.72;;;7.01;59.75
43621;BME280;29213;50.770;7.298;2023-02-02T14:53:36;101687.47;;;6.87;59.76
43621;BME280;29213;50.770;7.298;2023-02-02T15:06:42;101729.53;;;7.16;58.97
43621;BME280;29213;50.770;7.298;2023-02-02T15:14:24;101725.44;;;7.23;59.41
43621;BME280;29213;50.770;7.298;2023-02-02T15:16:53;101703.13;;;7.14;58.78